Time;durP1;ratioP1;P1;durP2;ratioP2;P2;SDS_P1;SDS_P2;PMS_P1;PMS_P2;Temp;Humidity;BMP_temperature;BMP_pressure;BME280_temperature;BME280_humidity;BME280_pressure;Samples;Min_cycle;Max_cycle;Signal;HPM_P1;HPM_P2
2021/12/23 00:01:06;;;;;;;80.97;33.17;;;;;;;-0.08;63.39;101089.47;5002699;28;20474;-68
2021/12/23 00:03:32;;;;;;;84.37;32.43;;;;;;;0.01;63.03;101095.25;5002886;28;20045;-73
2021/12/23 00:05:57;;;;;;;81.77;32.53;;;;;;;0.09;62.51;101094.03;5001613;28;20034;-69
2021/12/23 00:08:23;;;;;;;80.03;30.97;;;;;;;0.26;61.92;101094.19;5002519;28;20026;-70
2021/12/23 00:10:49;;;;;;;78.40;33.00;;;;;;;0.20;61.67;101096.19;5000245;28;20048;-72
2021/12/23 00:13:15;;;;;;;78.30;32.73;;;;;;;0.12;61.74;101090.44;5002278;28;20049;-73
2021/12/23 00:23:48;;;;;;;104.00;37.33;;;;;;;-0.29;63.10;101105.09;5019678;28;20068;-72
2021/12/23 00:26:14;;;;;;;95.40;35.77;;;;;;;-0.27;63.08;101098.91;5004036;28;20021;-73
2021/12/23 00:28:39;;;;;;;93.60;37.33;;;;;;;-0.25;62.64;101102.31;5022786;28;20030;-73
2021/12/23 00:31:06;;;;;;;107.23;39.30;;;;;;;-0.34;62.84;101100.91;5023593;28;20216;-74
2021/12/23 00:33:33;;;;;;;117.23;42.87;;;;;;;-0.45;63.29;101102.25;5020797;28;20312;-69
2021/12/23 00:35:58;;;;;;;108.67;41.37;;;;;;;-0.55;63.86;101106.94;5021603;28;20390;-69
2021/12/23 00:38:32;;;;;;;120.37;44.67;;;;;;;-0.49;64.03;101098.06;5021601;28;20018;-68
2021/12/23 00:41:00;;;;;;;129.27;42.53;;;;;;;-0.34;63.53;101095.72;5021136;28;20029;-69
2021/12/23 00:43:26;;;;;;;104.40;37.90;;;;;;;-0.44;63.83;101093.53;5023263;28;20080;-74
2021/12/23 00:45:51;;;;;;;119.97;39.77;;;;;;;-0.32;63.53;101093.06;5022284;28;20034;-73
2021/12/23 00:48:17;;;;;;;208.20;54.07;;;;;;;-0.33;62.86;101088.75;5021577;28;20013;-68
2021/12/23 00:50:44;;;;;;;161.13;45.67;;;;;;;-0.40;63.31;101090.75;5021288;28;20034;-68
2021/12/23 00:53:10;;;;;;;88.93;33.97;;;;;;;-0.34;62.85;101093.09;5020497;28;20025;-69
2021/12/23 00:55:36;;;;;;;124.53;38.27;;;;;;;-0.36;62.89;101078.47;5003748;28;20057;-69
2021/12/23 00:58:02;;;;;;;169.97;48.47;;;;;;;-0.20;62.51;101078.69;5004481;28;20033;-73
2021/12/23 01:00:29;;;;;;;171.13;51.40;;;;;;;-0.18;61.83;101080.34;5021406;28;20038;-73
2021/12/23 01:02:54;;;;;;;214.20;64.03;;;;;;;-0.14;61.99;101078.47;5003214;28;20109;-73
2021/12/23 01:05:22;;;;;;;120.97;46.47;;;;;;;-0.06;61.71;101092.84;5003244;28;20053;-70
2021/12/23 01:07:48;;;;;;;115.20;43.33;;;;;;;-0.08;61.18;101089.47;5020773;28;20029;-69
2021/12/23 01:10:15;;;;;;;89.30;35.07;;;;;;;-0.14;61.87;101083.66;5020918;28;20236;-68
2021/12/23 01:12:46;;;;;;;74.33;29.27;;;;;;;-0.17;62.22;101086.38;5020865;28;20252;-73
2021/12/23 01:15:37;;;;;;;80.80;31.10;;;;;;;-0.09;62.08;101086.94;5022745;28;20026;-73
2021/12/23 01:18:19;;;;;;;112.40;42.50;;;;;;;-0.11;61.78;101084.38;5020849;28;20037;-69
2021/12/23 01:20:53;;;;;;;84.22;33.33;;;;;;;-0.16;61.87;101077.66;5021138;28;20048;-73
2021/12/23 01:23:23;;;;;;;79.40;28.63;;;;;;;-0.24;61.95;101075.38;5020265;28;20029;-73
2021/12/23 01:25:51;;;;;;;62.20;25.10;;;;;;;-0.37;62.24;101056.78;5020755;28;20033;-68
2021/12/23 01:28:18;;;;;;;72.73;24.00;;;;;;;-0.22;61.75;101072.72;5020737;28;20075;-74
2021/12/23 01:30:43;;;;;;;60.60;25.97;;;;;;;-0.28;61.96;101072.97;5021980;28;20034;-69
2021/12/23 01:33:10;;;;;;;70.73;26.37;;;;;;;-0.53;62.64;101067.88;5021569;28;20026;-73
2021/12/23 01:35:37;;;;;;;72.23;26.23;;;;;;;-0.41;61.82;101065.63;5019733;28;20056;-68
2021/12/23 01:38:03;;;;;;;98.37;33.07;;;;;;;-0.34;62.24;101067.09;5020553;28;20068;-69
2021/12/23 01:40:30;;;;;;;94.17;31.20;;;;;;;-0.35;61.65;101068.00;5020405;28;20064;-69
2021/12/23 01:42:56;;;;;;;91.20;30.77;;;;;;;-0.36;61.75;101065.44;5019547;28;20032;-74
2021/12/23 01:45:25;;;;;;;128.53;36.50;;;;;;;-0.31;62.10;101066.13;5020049;28;20040;-73
2021/12/23 01:47:51;;;;;;;92.93;29.00;;;;;;;-0.36;61.81;101062.84;5020399;28;20211;-73
2021/12/23 01:50:18;;;;;;;58.03;22.63;;;;;;;-0.32;62.11;101062.66;5020423;28;20061;-69
2021/12/23 01:52:44;;;;;;;51.47;19.03;;;;;;;-0.26;61.35;101058.97;5019178;28;20034;-69
2021/12/23 01:55:12;;;;;;;84.63;26.67;;;;;;;-0.24;60.88;101064.13;5020332;28;20324;-72
2021/12/23 01:57:39;;;;;;;60.27;22.50;;;;;;;-0.44;61.30;101051.91;5019262;28;20036;-72
2021/12/23 02:00:11;;;;;;;50.87;19.10;;;;;;;-0.33;61.15;101058.38;5020366;28;20080;-73
2021/12/23 02:02:37;;;;;;;51.80;19.27;;;;;;;-0.36;60.75;101048.09;5021084;28;20034;-74
2021/12/23 02:05:03;;;;;;;52.13;18.50;;;;;;;-0.42;60.54;101027.50;5003866;28;20079;-69
2021/12/23 02:07:29;;;;;;;48.47;17.57;;;;;;;-0.38;61.09;101043.84;5021342;28;20037;-68
2021/12/23 02:09:57;;;;;;;53.53;18.10;;;;;;;-0.43;60.98;101046.63;5023228;28;20034;-72
2021/12/23 02:12:24;;;;;;;74.20;23.57;;;;;;;-0.53;61.02;101050.50;5019579;28;20402;-69
2021/12/23 02:14:50;;;;;;;44.27;16.73;;;;;;;-0.76;61.87;101050.53;5019786;28;20231;-74
2021/12/23 02:17:15;;;;;;;51.47;16.93;;;;;;;-0.64;61.75;101050.06;5018895;28;20034;-68
2021/12/23 02:19:41;;;;;;;40.00;15.50;;;;;;;-0.48;61.51;101047.72;5006510;28;20042;-72
2021/12/23 02:22:06;;;;;;;37.47;15.03;;;;;;;-0.44;61.22;101036.28;5021376;28;20045;-69
2021/12/23 02:24:31;;;;;;;42.67;16.27;;;;;;;-0.41;61.13;101039.63;5022746;28;20036;-69
2021/12/23 02:26:57;;;;;;;39.40;16.10;;;;;;;-0.58;61.80;101042.03;5022842;28;20029;-73
2021/12/23 02:29:22;;;;;;;46.63;17.30;;;;;;;-0.51;60.76;101040.03;5022611;28;20224;-73
2021/12/23 02:31:50;;;;;;;45.27;17.53;;;;;;;-0.50;60.70;101046.94;5022506;28;20029;-68
2021/12/23 02:34:17;;;;;;;57.57;18.70;;;;;;;-0.74;61.62;101038.31;5021960;28;20037;-69
2021/12/23 02:36:52;;;;;;;54.60;18.43;;;;;;;-0.47;60.66;101045.06;5022409;28;20276;-73
2021/12/23 02:39:19;;;;;;;45.30;15.53;;;;;;;-0.48;60.19;101048.56;5022679;28;20390;-70
2021/12/23 02:41:44;;;;;;;47.17;16.50;;;;;;;-0.66;60.39;101052.72;5022486;28;20125;-68
2021/12/23 02:44:11;;;;;;;47.70;17.93;;;;;;;-0.71;60.24;101056.41;5022362;28;20320;-68
2021/12/23 02:46:36;;;;;;;45.80;18.13;;;;;;;-0.86;60.67;101052.66;5022517;28;20166;-69
2021/12/23 02:49:02;;;;;;;46.50;18.97;;;;;;;-1.07;60.75;101049.06;5022455;28;20065;-69
2021/12/23 02:51:28;;;;;;;45.63;18.30;;;;;;;-1.05;61.50;101049.84;5022270;28;20041;-71
2021/12/23 02:53:53;;;;;;;42.33;18.57;;;;;;;-1.14;62.04;101047.59;5022378;28;20034;-73
2021/12/23 02:56:19;;;;;;;47.97;19.00;;;;;;;-1.19;62.44;101043.47;5022462;28;20026;-69
2021/12/23 02:58:45;;;;;;;58.07;22.87;;;;;;;-1.07;62.66;101054.25;5022422;28;20045;-69
2021/12/23 03:01:13;;;;;;;48.67;21.03;;;;;;;-1.19;63.46;101056.47;5004795;28;20050;-68
2021/12/23 03:03:39;;;;;;;50.87;20.87;;;;;;;-1.02;62.43;101047.16;5022488;28;20060;-68
2021/12/23 03:06:05;;;;;;;62.30;24.43;;;;;;;-0.90;61.60;101037.22;5022431;28;20105;-72
2021/12/23 03:08:37;;;;;;;70.83;28.77;;;;;;;-0.82;61.58;101053.38;5021560;28;20341;-74
2021/12/23 03:11:04;;;;;;;68.90;25.03;;;;;;;-0.93;61.86;101038.19;5017246;28;20204;-73
2021/12/23 03:13:30;;;;;;;60.53;24.00;;;;;;;-0.83;62.08;101051.69;5018391;28;20034;-73
2021/12/23 03:15:56;;;;;;;57.17;22.40;;;;;;;-0.83;62.31;101057.72;5020677;28;20048;-72
2021/12/23 03:18:21;;;;;;;55.27;21.87;;;;;;;-0.75;61.65;101063.50;5019018;28;20091;-73
2021/12/23 03:20:47;;;;;;;55.83;22.23;;;;;;;-0.67;61.20;101061.44;5018246;28;20240;-74
2021/12/23 03:23:12;;;;;;;57.07;22.83;;;;;;;-0.65;61.02;101059.63;5020751;28;20029;-73
2021/12/23 03:25:38;;;;;;;64.33;22.97;;;;;;;-0.77;61.55;101067.91;5020108;28;20037;-73
2021/12/23 03:28:04;;;;;;;56.90;23.93;;;;;;;-0.70;61.50;101064.16;5018516;28;20041;-68
2021/12/23 03:30:29;;;;;;;60.47;25.40;;;;;;;-0.77;61.48;101064.44;5020828;28;20041;-68
2021/12/23 03:32:55;;;;;;;60.10;24.50;;;;;;;-0.87;61.67;101073.50;5001504;28;20073;-73
2021/12/23 03:35:20;;;;;;;67.30;25.93;;;;;;;-0.78;61.72;101068.81;5018991;28;20068;-74
2021/12/23 03:37:46;;;;;;;58.33;24.37;;;;;;;-0.83;61.79;101070.72;5020385;28;20085;-68
2021/12/23 03:40:11;;;;;;;67.37;24.63;;;;;;;-0.91;61.55;101064.97;5019538;28;20097;-68
2021/12/23 03:42:37;;;;;;;89.07;29.67;;;;;;;-1.05;62.56;101069.81;5019096;28;20328;-69
2021/12/23 03:45:05;;;;;;;72.67;26.63;;;;;;;-1.07;63.38;101067.25;5020710;28;20041;-73
2021/12/23 03:47:30;;;;;;;57.00;23.27;;;;;;;-1.05;62.73;101073.25;5024113;28;20034;-69
2021/12/23 03:49:56;;;;;;;47.20;19.77;;;;;;;-0.92;62.50;101078.88;5023768;28;20064;-72
2021/12/23 03:52:21;;;;;;;63.43;20.93;;;;;;;-0.85;61.78;101082.09;5025850;28;20038;-68
2021/12/23 03:54:46;;;;;;;55.13;22.13;;;;;;;-0.91;59.66;101080.56;5023548;28;20029;-73
2021/12/23 03:57:12;;;;;;;54.30;22.43;;;;;;;-0.91;60.34;101090.13;5025328;28;20033;-73
2021/12/23 03:59:37;;;;;;;51.87;21.23;;;;;;;-0.96;61.34;101090.28;5005508;28;20034;-68
2021/12/23 04:02:04;;;;;;;54.60;21.60;;;;;;;-1.01;61.18;101100.88;5024303;28;20037;-72
2021/12/23 04:04:29;;;;;;;148.37;37.23;;;;;;;-1.01;61.79;101089.63;5023636;28;20300;-69
2021/12/23 04:06:55;;;;;;;72.57;24.43;;;;;;;-0.97;61.25;101089.44;5025223;28;20093;-73
2021/12/23 04:09:20;;;;;;;69.70;23.87;;;;;;;-0.87;60.82;101092.56;5023592;28;20216;-74
2021/12/23 04:11:46;;;;;;;58.03;22.03;;;;;;;-0.89;59.82;101093.50;5025292;28;20041;-72
2021/12/23 04:14:11;;;;;;;56.80;21.03;;;;;;;-1.51;60.80;101093.97;5022036;28;20033;-72
2021/12/23 04:16:37;;;;;;;42.57;17.43;;;;;;;-1.73;61.87;101094.69;5023186;28;20254;-73
2021/12/23 04:19:07;;;;;;;42.63;18.00;;;;;;;-1.74;62.70;101095.59;5005717;28;20340;-73
2021/12/23 04:21:33;;;;;;;45.53;17.97;;;;;;;-1.69;63.07;101098.91;5021541;28;20271;-68
2021/12/23 04:23:58;;;;;;;41.53;17.20;;;;;;;-1.56;63.28;101099.31;5021813;28;20048;-72
2021/12/23 04:26:23;;;;;;;49.97;18.90;;;;;;;-1.65;62.70;101094.44;5020732;28;20316;-69
2021/12/23 04:28:51;;;;;;;40.63;16.13;;;;;;;-1.52;62.42;101103.50;5023375;28;20037;-68
2021/12/23 04:31:19;;;;;;;42.83;17.90;;;;;;;-1.45;61.87;101107.59;5022654;28;20033;-67
2021/12/23 04:33:46;;;;;;;43.70;17.77;;;;;;;-1.53;61.38;101108.75;5020602;28;20032;-68
2021/12/23 04:36:12;;;;;;;44.70;17.23;;;;;;;-1.64;61.82;101098.75;5003968;28;20057;-68
2021/12/23 04:38:39;;;;;;;35.63;15.80;;;;;;;-1.52;63.22;101100.06;5021282;28;20288;-72
2021/12/23 04:41:05;;;;;;;36.83;15.23;;;;;;;-1.49;62.32;101099.97;5003793;28;20029;-69
2021/12/23 04:43:31;;;;;;;38.47;15.70;;;;;;;-1.45;62.32;101099.81;5023264;28;20107;-67
2021/12/23 04:45:56;;;;;;;36.63;15.00;;;;;;;-1.40;61.02;101094.44;5022485;28;20034;-72
2021/12/23 04:48:22;;;;;;;32.17;14.27;;;;;;;-1.46;61.68;101092.91;5022713;28;20109;-68
2021/12/23 04:50:47;;;;;;;30.17;14.97;;;;;;;-1.45;61.75;101094.59;5020552;28;20026;-68
2021/12/23 04:53:12;;;;;;;39.20;16.93;;;;;;;-1.85;64.01;101094.25;5020169;28;20022;-73
2021/12/23 04:55:38;;;;;;;43.03;18.83;;;;;;;-1.78;64.82;101096.59;5020991;28;20418;-69
2021/12/23 04:58:03;;;;;;;39.77;17.97;;;;;;;-1.63;63.07;101095.25;5020742;28;20044;-73
2021/12/23 05:00:29;;;;;;;36.73;16.47;;;;;;;-1.63;62.70;101084.84;5020851;28;20038;-72
2021/12/23 05:02:54;;;;;;;47.73;17.93;;;;;;;-1.45;62.25;101094.59;5023172;28;20046;-72
2021/12/23 05:05:20;;;;;;;49.17;20.03;;;;;;;-1.37;61.37;101087.41;5022985;28;20347;-69
2021/12/23 05:07:45;;;;;;;70.87;30.97;;;;;;;-1.34;61.67;101097.69;5021230;28;20096;-73
2021/12/23 05:10:12;;;;;;;76.57;31.63;;;;;;;-1.23;61.50;101096.47;5022314;28;20026;-68
2021/12/23 05:12:45;;;;;;;69.07;25.10;;;;;;;-1.31;61.76;101102.78;5020016;28;20097;-68
2021/12/23 05:15:16;;;;;;;78.13;26.77;;;;;;;-1.30;60.82;101091.47;5020510;28;20071;-69
2021/12/23 05:17:43;;;;;;;56.57;21.27;;;;;;;-1.38;59.82;101096.09;5002539;28;20022;-73
2021/12/23 05:20:10;;;;;;;49.50;20.53;;;;;;;-1.58;60.98;101088.16;5020463;28;20327;-72
2021/12/23 05:22:36;;;;;;;53.43;22.70;;;;;;;-1.63;61.79;101097.84;5021889;28;20036;-68
2021/12/23 05:25:03;;;;;;;100.80;31.47;;;;;;;-1.65;61.66;101103.09;5022354;28;20042;-68
2021/12/23 05:27:28;;;;;;;89.87;29.93;;;;;;;-1.59;62.13;101096.84;5020086;28;20036;-73
2021/12/23 05:29:54;;;;;;;73.20;29.00;;;;;;;-1.45;60.81;101097.22;5020609;28;20041;-73
2021/12/23 05:32:21;;;;;;;73.20;30.03;;;;;;;-1.53;60.52;101094.03;5020813;28;20038;-72
2021/12/23 05:34:46;;;;;;;101.10;35.50;;;;;;;-1.52;60.25;101097.47;5021002;28;20101;-72
2021/12/23 05:37:12;;;;;;;85.23;34.13;;;;;;;-1.53;60.37;101098.38;5022170;28;20029;-69
2021/12/23 05:39:37;;;;;;;75.63;29.77;;;;;;;-1.50;60.17;101093.06;5020727;28;20378;-70
2021/12/23 05:42:03;;;;;;;67.20;30.20;;;;;;;-1.63;60.06;101098.69;5022894;28;20342;-73
2021/12/23 05:44:30;;;;;;;97.30;38.13;;;;;;;-1.66;61.08;101100.53;5021140;28;20038;-72
2021/12/23 05:46:55;;;;;;;73.77;27.80;;;;;;;-1.60;60.30;101105.53;5020296;28;20041;-68
2021/12/23 05:49:21;;;;;;;39.50;16.57;;;;;;;-1.62;60.37;101099.53;5020111;28;20066;-73
2021/12/23 05:51:46;;;;;;;42.50;19.30;;;;;;;-1.66;61.45;101105.72;5021789;28;20030;-73
2021/12/23 05:54:12;;;;;;;44.07;17.87;;;;;;;-1.61;61.16;101103.81;5003671;28;20080;-72
2021/12/23 05:56:37;;;;;;;34.67;16.07;;;;;;;-1.50;60.69;101116.44;5020356;28;20092;-72
2021/12/23 05:59:03;;;;;;;41.43;16.37;;;;;;;-1.64;60.74;101115.16;5020083;28;20041;-68
2021/12/23 06:01:28;;;;;;;43.30;19.03;;;;;;;-1.72;61.38;101109.38;5019067;28;20324;-68
2021/12/23 06:03:54;;;;;;;50.53;20.23;;;;;;;-1.71;60.43;101112.81;5002202;28;20287;-73
2021/12/23 06:06:20;;;;;;;45.60;20.10;;;;;;;-1.74;61.01;101112.94;5021012;28;20057;-72
2021/12/23 06:08:45;;;;;;;37.73;15.33;;;;;;;-1.88;61.45;101122.91;5020675;28;20030;-72
2021/12/23 06:11:11;;;;;;;34.43;14.60;;;;;;;-1.81;61.86;101129.63;5019618;28;20037;-73
2021/12/23 06:13:36;;;;;;;32.70;15.30;;;;;;;-1.88;62.53;101126.38;5019371;28;20144;-73
2021/12/23 06:16:02;;;;;;;43.43;18.67;;;;;;;-1.99;62.74;101129.31;5021248;28;20049;-67
2021/12/23 06:18:28;;;;;;;37.53;17.93;;;;;;;-1.98;63.08;101122.38;5020956;28;20094;-72
2021/12/23 06:20:53;;;;;;;36.60;16.27;;;;;;;-1.84;62.53;101130.56;5020379;28;20030;-72
2021/12/23 06:23:19;;;;;;;32.43;14.57;;;;;;;-1.68;62.74;101125.72;5021397;28;20037;-73
2021/12/23 06:25:44;;;;;;;31.40;14.90;;;;;;;-1.71;62.17;101113.69;5002509;28;20037;-73
2021/12/23 06:28:10;;;;;;;40.50;17.07;;;;;;;-1.54;62.26;101130.44;5020588;28;20025;-65
2021/12/23 06:30:36;;;;;;;41.77;19.57;;;;;;;-1.46;62.44;101141.44;5021254;28;20057;-68
2021/12/23 06:33:01;;;;;;;46.33;19.03;;;;;;;-1.41;62.48;101136.91;5019180;28;20061;-68
2021/12/23 06:35:29;;;;;;;43.40;20.33;;;;;;;-1.22;61.72;101135.38;5019876;28;20056;-73
2021/12/23 06:37:55;;;;;;;51.77;19.63;;;;;;;-1.14;61.26;101142.91;5018775;28;20033;-73
2021/12/23 06:40:22;;;;;;;57.30;22.97;;;;;;;-1.12;61.82;101141.97;5019251;28;20050;-68
2021/12/23 06:42:48;;;;;;;50.83;22.63;;;;;;;-1.04;61.76;101129.56;5020237;28;20342;-72
2021/12/23 06:45:14;;;;;;;43.43;20.63;;;;;;;-1.00;62.20;101143.31;5021014;28;20061;-68
2021/12/23 06:47:40;;;;;;;68.80;29.30;;;;;;;-1.12;62.67;101139.34;5020841;28;20193;-68
2021/12/23 06:50:07;;;;;;;80.30;33.23;;;;;;;-0.76;61.79;101145.03;5022483;28;20077;-69
2021/12/23 06:52:33;;;;;;;87.50;36.70;;;;;;;-0.56;61.30;101141.69;5019741;28;20083;-68
2021/12/23 06:54:59;;;;;;;73.43;31.30;;;;;;;-0.50;61.65;101149.25;5019007;28;20030;-68
2021/12/23 06:57:26;;;;;;;56.63;24.87;;;;;;;-0.69;61.83;101143.03;5019840;28;20359;-72
2021/12/23 06:59:52;;;;;;;58.43;25.37;;;;;;;-0.73;62.91;101154.47;5020059;28;20080;-72
2021/12/23 07:02:17;;;;;;;57.87;24.53;;;;;;;-0.65;63.50;101144.63;5020983;28;20101;-69
2021/12/23 07:04:44;;;;;;;61.27;26.13;;;;;;;-0.50;62.72;101140.59;5020097;28;20038;-73
2021/12/23 07:07:12;;;;;;;53.27;26.10;;;;;;;-0.37;62.13;101141.84;5018203;28;20034;-68
2021/12/23 07:09:42;;;;;;;51.97;23.50;;;;;;;-0.11;61.15;101141.66;5020290;28;20041;-68
2021/12/23 07:12:11;;;;;;;54.93;24.57;;;;;;;0.11;60.22;101141.69;5021073;28;20307;-72
2021/12/23 07:14:38;;;;;;;55.07;25.00;;;;;;;0.10;60.22;101134.78;5017601;28;20030;-73
2021/12/23 07:17:04;;;;;;;60.73;27.40;;;;;;;0.13;60.33;101137.28;5019183;28;20032;-74
2021/12/23 07:19:30;;;;;;;67.07;26.67;;;;;;;0.27;60.31;101141.91;5018252;28;20092;-68
2021/12/23 07:21:55;;;;;;;117.93;35.37;;;;;;;0.54;59.67;101150.34;5022038;28;20042;-73
2021/12/23 07:24:21;;;;;;;84.53;31.93;;;;;;;0.88;58.48;101152.38;5022926;28;20038;-68
2021/12/23 07:26:48;;;;;;;96.10;33.97;;;;;;;1.15;57.69;101150.34;5023042;28;20080;-73
2021/12/23 07:29:13;;;;;;;106.03;37.27;;;;;;;1.49;56.71;101153.13;5023585;28;20030;-73
2021/12/23 07:31:39;;;;;;;94.03;36.47;;;;;;;1.78;55.84;101146.56;5024404;28;20041;-68
2021/12/23 07:34:04;;;;;;;84.20;34.23;;;;;;;1.89;55.28;101148.66;5024007;28;20038;-68
2021/12/23 07:36:30;;;;;;;81.73;34.73;;;;;;;2.01;54.69;101149.84;5025023;28;20033;-68
2021/12/23 07:38:57;;;;;;;87.57;35.60;;;;;;;2.13;55.12;101152.75;5022827;28;20065;-73
2021/12/23 07:41:26;;;;;;;100.57;36.80;;;;;;;2.17;54.20;101149.06;5022695;28;20044;-73
2021/12/23 07:46:21;;;;;;;70.13;33.10;;;;;;;1.43;55.63;101149.97;5021801;28;20033;-72
2021/12/23 07:48:46;;;;;;;78.67;34.37;;;;;;;1.60;55.41;101156.09;5022874;28;20089;-72
2021/12/23 07:51:12;;;;;;;65.57;28.67;;;;;;;1.55;56.08;101152.00;5024503;28;20076;-73
2021/12/23 07:53:37;;;;;;;60.00;26.13;;;;;;;1.59;56.16;101153.56;5023237;28;20034;-70
2021/12/23 07:56:03;;;;;;;50.37;23.20;;;;;;;1.61;56.53;101146.50;5025949;28;20038;-73
2021/12/23 07:58:28;;;;;;;49.60;22.43;;;;;;;1.82;56.30;101148.13;5023758;28;20065;-69
2021/12/23 08:00:55;;;;;;;59.27;24.17;;;;;;;2.13;56.76;101147.53;5021306;28;20038;-74
2021/12/23 08:03:21;;;;;;;43.40;19.03;;;;;;;2.19;55.53;101149.00;5022249;28;20323;-73
2021/12/23 08:05:46;;;;;;;46.30;19.73;;;;;;;1.99;55.65;101141.25;5024194;28;20040;-68
2021/12/23 08:08:12;;;;;;;42.93;17.63;;;;;;;2.13;54.03;101144.91;5023249;28;20033;-69
2021/12/23 08:10:37;;;;;;;41.53;18.30;;;;;;;2.34;54.00;101142.19;5024920;28;20057;-69
2021/12/23 08:13:03;;;;;;;32.33;16.13;;;;;;;2.34;53.01;101140.41;5024639;28;20038;-69
2021/12/23 08:15:28;;;;;;;30.77;15.90;;;;;;;2.50;53.07;101130.03;5022167;28;20319;-69
2021/12/23 08:17:54;;;;;;;33.57;15.57;;;;;;;2.71;51.88;101138.56;5020940;28;20083;-74
2021/12/23 08:20:20;;;;;;;29.70;15.20;;;;;;;2.68;51.27;101136.94;5024100;28;20092;-73
2021/12/23 08:22:45;;;;;;;35.80;16.63;;;;;;;2.38;50.94;101126.25;5023629;28;20041;-73
2021/12/23 08:25:12;;;;;;;33.77;16.70;;;;;;;2.53;50.41;101133.34;5024026;28;20054;-69
2021/12/23 08:27:39;;;;;;;37.23;17.73;;;;;;;2.87;49.68;101127.25;5023812;28;20044;-71
2021/12/23 08:30:08;;;;;;;37.87;16.70;;;;;;;2.77;49.95;101128.63;5021938;28;20038;-70
2021/12/23 08:32:33;;;;;;;34.93;17.10;;;;;;;2.97;49.29;101134.59;5016619;28;20030;-69
2021/12/23 08:34:59;;;;;;;35.57;17.73;;;;;;;2.98;49.75;101139.75;5021513;28;20038;-74
2021/12/23 08:37:24;;;;;;;36.93;18.60;;;;;;;2.93;49.70;101115.59;5021230;28;20029;-73
2021/12/23 08:39:51;;;;;;;35.53;18.00;;;;;;;3.33;48.34;101124.84;5021707;28;20041;-67
2021/12/23 08:42:17;;;;;;;36.60;17.73;;;;;;;3.43;48.57;101131.28;5020828;28;20037;-67
2021/12/23 08:44:43;;;;;;;38.73;17.17;;;;;;;3.42;48.45;101132.19;5024775;28;20033;-68
2021/12/23 08:47:09;;;;;;;36.17;18.93;;;;;;;3.24;48.77;101121.88;5024710;28;20056;-70
2021/12/23 08:49:35;;;;;;;41.00;18.57;;;;;;;3.01;49.42;101118.66;5024086;28;20057;-69
2021/12/23 08:52:00;;;;;;;38.50;19.83;;;;;;;3.18;49.38;101117.81;5006898;28;20251;-69
2021/12/23 08:54:26;;;;;;;42.57;18.60;;;;;;;2.93;50.54;101113.00;5025014;28;20054;-73
2021/12/23 08:56:51;;;;;;;40.67;19.23;;;;;;;2.96;50.92;101117.22;5024102;28;20033;-70
2021/12/23 08:59:18;;;;;;;37.40;19.00;;;;;;;3.12;50.11;101115.47;5024178;28;20037;-69
2021/12/23 09:01:45;;;;;;;36.40;18.20;;;;;;;3.13;50.91;101098.88;5024346;28;20037;-69
2021/12/23 09:04:11;;;;;;;33.33;16.67;;;;;;;3.09;50.58;101084.25;5024323;28;20100;-67
2021/12/23 09:06:36;;;;;;;37.97;18.23;;;;;;;3.35;50.45;101099.44;5023820;28;20038;-68
2021/12/23 09:09:03;;;;;;;38.20;18.27;;;;;;;3.25;51.24;101098.22;5023988;28;20093;-69
2021/12/23 09:11:29;;;;;;;43.27;17.73;;;;;;;3.36;50.30;101090.66;5024057;28;20034;-67
2021/12/23 09:13:55;;;;;;;27.77;11.83;;;;;;;3.20;49.17;101089.78;5023603;28;20204;-74
2021/12/23 09:16:20;;;;;;;29.10;13.63;;;;;;;3.04;50.27;101086.25;5024078;28;20076;-69
2021/12/23 09:18:46;;;;;;;28.57;13.10;;;;;;;2.87;50.52;101071.44;5023971;28;20096;-66
2021/12/23 09:21:12;;;;;;;27.50;11.63;;;;;;;2.77;48.97;101072.84;5023444;28;20235;-66
2021/12/23 09:23:39;;;;;;;23.43;10.77;;;;;;;2.74;50.04;101059.94;5024123;28;20038;-71
2021/12/23 09:26:09;;;;;;;25.50;11.43;;;;;;;2.80;50.72;101063.09;5023955;28;20060;-71
2021/12/23 09:34:09;;;;;;;31.37;12.53;;;;;;;2.78;51.29;101048.38;4995484;28;20054;-67
2021/12/23 09:36:36;;;;;;;20.80;11.30;;;;;;;2.60;51.06;101044.97;5023389;28;20038;-66
2021/12/23 09:39:05;;;;;;;28.30;13.10;;;;;;;2.83;51.54;101036.75;5023825;28;20053;-66
2021/12/23 09:41:32;;;;;;;28.60;12.60;;;;;;;2.91;51.82;101036.34;5023590;28;20033;-73
2021/12/23 09:43:59;;;;;;;25.63;12.90;;;;;;;2.48;51.91;101029.91;5022917;28;20037;-67
2021/12/23 09:46:25;;;;;;;24.00;12.03;;;;;;;2.54;52.44;101035.66;5022321;28;20037;-72
2021/12/23 09:48:52;;;;;;;29.30;14.17;;;;;;;2.81;52.10;101032.53;5023272;28;20358;-67
2021/12/23 09:51:19;;;;;;;34.63;14.70;;;;;;;3.19;51.57;101030.50;5023254;28;20041;-69
2021/12/23 09:53:54;;;;;;;24.77;11.73;;;;;;;3.14;50.35;101027.28;5019658;28;20060;-71
2021/12/23 09:56:20;;;;;;;25.53;11.60;;;;;;;3.08;49.58;101028.44;5002998;28;20056;-71
2021/12/23 09:58:46;;;;;;;25.80;11.70;;;;;;;3.15;50.23;101015.91;5002719;28;20310;-71
2021/12/23 10:01:12;;;;;;;25.73;12.67;;;;;;;3.45;51.27;101014.22;5002585;28;20042;-72
2021/12/23 10:03:39;;;;;;;25.57;12.43;;;;;;;3.26;49.19;101005.69;5002624;28;20076;-67
2021/12/23 10:06:05;;;;;;;22.03;11.33;;;;;;;2.98;49.27;101003.69;5002631;28;20038;-70
2021/12/23 10:08:30;;;;;;;31.63;12.93;;;;;;;3.02;49.15;100999.16;5003016;28;20347;-70
2021/12/23 10:11:11;;;;;;;24.83;11.70;;;;;;;3.30;48.70;100994.13;5003467;28;20335;-71
2021/12/23 10:30:38;;;;;;;15.83;8.77;;;;;;;3.49;47.21;100965.13;5003170;28;19918;-67
2021/12/23 10:38:36;;;;;;;22.17;10.27;;;;;;;3.30;47.84;100947.00;5042332;28;20029;-72
2021/12/23 10:41:16;;;;;;;24.20;10.13;;;;;;;3.00;48.41;100948.66;5042223;28;20045;-67
2021/12/23 10:43:44;;;;;;;20.27;9.83;;;;;;;3.03;48.14;100943.28;5042608;28;20037;-66
2021/12/23 10:46:20;;;;;;;26.70;11.33;;;;;;;3.20;48.54;100940.59;5042283;28;20065;-71
2021/12/23 10:48:58;;;;;;;21.30;9.40;;;;;;;3.39;46.50;100940.41;5038943;28;20311;-66
2021/12/23 10:51:24;;;;;;;19.53;9.57;;;;;;;3.75;46.09;100938.28;5022228;28;20231;-67
2021/12/23 10:59:19;;;;;;;19.80;10.27;;;;;;;3.62;46.46;100925.97;5022247;28;20049;-71
2021/12/23 11:02:12;;;;;;;33.70;11.75;;;;;;;3.51;46.70;100921.38;5022330;28;20041;-71
2021/12/23 11:05:22;;;;;;;23.83;10.53;;;;;;;3.61;46.02;100922.50;5021977;28;20414;-72
2021/12/23 11:10:57;;;;;;;22.33;12.30;;;;;;;3.71;47.03;100914.97;5022563;28;20045;-66
2021/12/23 11:41:33;;;;;;;20.37;8.97;;;;;;;4.15;43.91;100868.59;5021149;28;20065;-71
2021/12/23 11:44:01;;;;;;;17.17;8.10;;;;;;;3.96;44.97;100872.44;5021846;28;20042;-66
2021/12/23 11:46:35;;;;;;;18.90;8.53;;;;;;;4.05;44.92;100874.50;5022118;28;20232;-71
2021/12/23 11:49:03;;;;;;;15.50;8.18;;;;;;;4.02;44.42;100861.56;5021919;28;20061;-72
2021/12/23 11:51:33;;;;;;;16.73;7.97;;;;;;;4.14;44.35;100864.28;5022780;28;20319;-67
2021/12/23 11:54:03;;;;;;;21.33;9.60;;;;;;;4.48;42.80;100864.88;5021816;28;20034;-71
2021/12/23 11:56:29;;;;;;;23.47;11.60;;;;;;;4.15;45.52;100867.75;5022213;28;20217;-71
2021/12/23 11:58:58;;;;;;;24.77;12.00;;;;;;;4.27;46.12;100871.44;5021565;28;20030;-71
2021/12/23 12:01:30;;;;;;;21.37;10.97;;;;;;;4.27;44.94;100871.44;5021714;28;20032;-72
2021/12/23 12:04:07;;;;;;;22.97;10.70;;;;;;;3.82;45.95;100866.25;5004329;28;20026;-72
2021/12/23 12:06:37;;;;;;;20.47;10.43;;;;;;;3.58;46.40;100862.47;5021968;28;20033;-68
2021/12/23 12:09:27;;;;;;;21.33;10.33;;;;;;;3.55;47.02;100861.78;5025577;28;20040;-71
2021/12/23 12:11:59;;;;;;;21.77;10.57;;;;;;;3.71;47.13;100870.44;5025109;28;20048;-71
2021/12/23 12:14:36;;;;;;;21.57;10.37;;;;;;;3.70;46.13;100869.59;5025077;28;20750;-72
2021/12/23 12:17:23;;;;;;;25.20;11.20;;;;;;;4.04;45.28;100865.78;5025032;28;20097;-67
2021/12/23 12:19:59;;;;;;;23.60;10.70;;;;;;;4.42;44.79;100865.25;5024771;28;20339;-66
2021/12/23 12:22:48;;;;;;;27.93;12.20;;;;;;;4.16;44.99;100861.56;5007624;28;20030;-71
2021/12/23 12:25:22;;;;;;;26.07;12.23;;;;;;;4.12;45.30;100860.09;5025033;28;20212;-67
2021/12/23 12:27:48;;;;;;;28.37;12.57;;;;;;;4.13;45.12;100857.38;5022321;28;20040;-71